| time (UTC) | temp F | wind direction | speed knots | gust knots | rain 1hr in | rain 24hr in | rain mn in | humidity % | barometer mb |
| 20260506092022 | 52 | 276 | 0.0 | 2.6 | 0.32 | 0.69 | 0.68 | 97 | 1010.2 |
| 20260506091821 | 52 | 279 | 0.0 | 2.6 | 0.31 | 0.68 | 0.67 | 97 | 1010.1 |
| 20260506091622 | 52 | 292 | 0.0 | 2.6 | 0.30 | 0.67 | 0.66 | 97 | 1010.3 |
| 20260506091422 | 52 | 292 | 0.0 | 2.6 | 0.30 | 0.66 | 0.65 | 97 | 1010.3 |
| 20260506091222 | 52 | 290 | 0.0 | 2.6 | 0.29 | 0.65 | 0.64 | 98 | 1010.4 |
| 20260506091022 | 52 | 296 | 0.0 | 1.7 | 0.28 | 0.64 | 0.63 | 98 | 1010.6 |
| 20260506090844 | 52 | 293 | 0.0 | 1.7 | 0.26 | 0.62 | 0.61 | 97 | 1010.5 |
| 20260506090621 | 52 | 285 | 0.0 | 1.7 | 0.25 | 0.61 | 0.60 | 97 | 1010.5 |
| 20260506090443 | 52 | 284 | 0.0 | 1.7 | 0.25 | 0.61 | 0.60 | 97 | 1010.4 |
| 20260506090243 | 52 | 283 | 0.0 | 1.7 | 0.25 | 0.61 | 0.60 | 97 | 1010.2 |
| 20260506090022 | 53 | 277 | 0.0 | 1.7 | 0.25 | 0.61 | 0.60 | 97 | 1010.2 |
| 20260506085844 | 53 | 272 | 0.0 | 0.9 | 0.24 | 0.60 | 0.59 | 97 | 1010.0 |
| 20260506085622 | 53 | 278 | 0.0 | 1.7 | 0.22 | 0.58 | 0.58 | 97 | 1009.8 |
| 20260506085421 | 53 | 278 | 0.0 | 1.7 | 0.22 | 0.58 | 0.57 | 97 | 1009.8 |
| 20260506085222 | 53 | 277 | 0.0 | 1.7 | 0.22 | 0.57 | 0.56 | 97 | 1009.9 |
| 20260506085021 | 53 | 280 | 0.0 | 2.6 | 0.21 | 0.56 | 0.55 | 97 | 1010.1 |
| 20260506084822 | 53 | 283 | 0.0 | 2.6 | 0.19 | 0.53 | 0.52 | 97 | 1010.1 |
| 20260506084623 | 53 | 293 | 0.9 | 2.6 | 0.20 | 0.51 | 0.50 | 97 | 1010.1 |
| 20260506084422 | 53 | 296 | 0.9 | 2.6 | 0.19 | 0.48 | 0.47 | 97 | 1010.1 |
| 20260506084222 | 53 | 291 | 0.9 | 3.5 | 0.18 | 0.47 | 0.46 | 97 | 1009.9 |
| 20260506084022 | 53 | 292 | 0.9 | 3.5 | 0.19 | 0.47 | 0.46 | 97 | 1009.8 |
| 20260506083822 | 53 | 287 | 0.9 | 3.5 | 0.20 | 0.47 | 0.46 | 97 | 1009.6 |
| 20260506083643 | 53 | 284 | 0.9 | 3.5 | 0.19 | 0.46 | 0.45 | 97 | 1010.3 |
| 20260506083422 | 53 | 284 | 0.9 | 3.5 | 0.18 | 0.45 | 0.44 | 97 | 1010.2 |
| 20260506083222 | 53 | 293 | 0.9 | 3.5 | 0.17 | 0.44 | 0.43 | 97 | 1009.7 |
| 20260506083022 | 53 | 320 | 0.9 | 3.5 | 0.15 | 0.42 | 0.41 | 97 | 1010.0 |
| 20260506082843 | 53 | 9 | 0.0 | 4.3 | 0.13 | 0.40 | 0.40 | 97 | 1009.8 |
| 20260506082621 | 53 | 38 | 0.0 | 4.3 | 0.12 | 0.39 | 0.38 | 97 | 1009.7 |
| 20260506082423 | 53 | 47 | 0.0 | 4.3 | 0.13 | 0.39 | 0.38 | 97 | 1009.1 |
| 20260506082242 | 54 | 43 | 0.0 | 4.3 | 0.13 | 0.38 | 0.37 | 97 | 1009.0 |
| 20260506082022 | 54 | 313 | 0.0 | 4.3 | 0.13 | 0.37 | 0.36 | 97 | 1009.0 |
| 20260506081843 | 54 | 278 | 0.0 | 3.5 | 0.13 | 0.37 | 0.36 | 97 | 1009.0 |
| 20260506081622 | 54 | 278 | 0.0 | 3.5 | 0.13 | 0.37 | 0.36 | 97 | 1009.1 |
| 20260506081421 | 54 | 282 | 0.0 | 3.5 | 0.13 | 0.36 | 0.35 | 97 | 1009.3 |
| 20260506081222 | 54 | 281 | 0.9 | 3.5 | 0.13 | 0.36 | 0.35 | 97 | 1009.2 |
| 20260506081043 | 54 | 280 | 0.9 | 3.5 | 0.13 | 0.36 | 0.35 | 97 | 1009.2 |
| 20260506080843 | 54 | 283 | 0.9 | 2.6 | 0.13 | 0.36 | 0.35 | 97 | 1009.1 |
| 20260506080622 | 54 | 283 | 0.9 | 2.6 | 0.13 | 0.36 | 0.35 | 97 | 1009.1 |
| 20260506080422 | 54 | 281 | 0.9 | 2.6 | 0.13 | 0.36 | 0.35 | 97 | 1009.1 |
| 20260506080222 | 54 | 281 | 0.9 | 2.6 | 0.13 | 0.36 | 0.35 | 97 | 1009.2 |
| 20260506073422 | 55 | 297 | 0.0 | 2.6 | 0.05 | 0.27 | 0.26 | 96 | 1008.5 |
| 20260506073222 | 55 | 281 | 0.9 | 2.6 | 0.05 | 0.27 | 0.26 | 96 | 1008.4 |
| 20260506073021 | 55 | 282 | 0.9 | 3.5 | 0.05 | 0.27 | 0.26 | 96 | 1008.4 |
| 20260506072822 | 55 | 283 | 0.9 | 3.5 | 0.06 | 0.27 | 0.26 | 96 | 1008.4 |
| 20260506072623 | 55 | 281 | 0.9 | 3.5 | 0.06 | 0.27 | 0.26 | 96 | 1008.4 |
| 20260506072422 | 55 | 279 | 1.7 | 4.3 | 0.05 | 0.26 | 0.25 | 96 | 1008.4 |
| 20260506072222 | 55 | 281 | 1.7 | 4.3 | 0.04 | 0.25 | 0.24 | 96 | 1008.4 |
| 20260506072022 | 55 | 281 | 1.7 | 4.3 | 0.04 | 0.24 | 0.23 | 95 | 1008.4 |
| 20260506071822 | 55 | 281 | 1.7 | 4.3 | 0.04 | 0.24 | 0.23 | 95 | 1008.4 |
| 20260506071622 | 56 | 280 | 1.7 | 6.1 | 0.04 | 0.24 | 0.23 | 95 | 1008.4 |
| 20260506071422 | 56 | 282 | 1.7 | 6.1 | 0.03 | 0.23 | 0.22 | 95 | 1008.4 |
| 20260506071222 | 56 | 282 | 1.7 | 6.1 | 0.03 | 0.23 | 0.22 | 95 | 1008.3 |
| 20260506071022 | 56 | 280 | 1.7 | 6.1 | 0.03 | 0.23 | 0.22 | 95 | 1008.4 |
| 20260506070821 | 56 | 280 | 2.6 | 6.1 | 0.03 | 0.23 | 0.22 | 94 | 1008.4 |
| 20260506070643 | 57 | 281 | 2.6 | 5.2 | 0.03 | 0.23 | 0.22 | 94 | 1008.3 |
| 20260506070422 | 57 | 284 | 2.6 | 7.8 | 0.04 | 0.23 | 0.22 | 94 | 1008.2 |
| 20260506070243 | 57 | 286 | 2.6 | 7.8 | 0.04 | 0.23 | 0.22 | 94 | 1008.3 |
| 20260506062422 | 64 | 234 | 0.0 | 2.6 | 0.20 | 0.21 | 0.20 | 95 | 1007.3 |
| 20260506062243 | 64 | 237 | 0.0 | 2.6 | 0.20 | 0.21 | 0.20 | 95 | 1007.5 |
| 20260506062023 | 64 | 250 | 0.0 | 1.7 | 0.19 | 0.20 | 0.19 | 95 | 1007.4 |
| 20260506061822 | 64 | 247 | 0.9 | 1.7 | 0.19 | 0.20 | 0.19 | 95 | 1007.2 |
| 20260506061622 | 64 | 243 | 0.9 | 0.9 | 0.19 | 0.20 | 0.19 | 95 | 1007.3 |
| 20260506061423 | 64 | 260 | 0.9 | 2.6 | 0.19 | 0.20 | 0.19 | 95 | 1007.5 |
| 20260506061222 | 64 | 255 | 0.9 | 2.6 | 0.19 | 0.20 | 0.19 | 94 | 1007.5 |
| 20260506061043 | 64 | 254 | 0.9 | 2.6 | 0.19 | 0.20 | 0.19 | 94 | 1007.5 |
| 20260506060822 | 64 | 246 | 0.9 | 4.3 | 0.19 | 0.20 | 0.19 | 94 | 1007.4 |
| 20260506060621 | 65 | 246 | 0.9 | 4.3 | 0.19 | 0.20 | 0.19 | 94 | 1007.5 |
| 20260506060422 | 65 | 248 | 0.9 | 4.3 | 0.18 | 0.19 | 0.18 | 94 | 1007.6 |
| 20260506060222 | 65 | 254 | 1.7 | 4.3 | 0.18 | 0.19 | 0.18 | 93 | 1007.4 |
| 20260506051222 | 65 | 221 | 0.9 | 3.5 | 0.00 | 0.01 | 0.00 | 91 | 1006.5 |
| 20260506051022 | 65 | 219 | 0.9 | 3.5 | 0.00 | 0.01 | 0.00 | 91 | 1006.6 |
| 20260506050843 | 65 | 220 | 0.9 | 3.5 | 0.00 | 0.01 | 0.00 | 92 | 1006.6 |
| 20260506050622 | 65 | 225 | 0.9 | 3.5 | 0.00 | 0.01 | 0.00 | 92 | 1006.6 |
| 20260506050422 | 64 | 224 | 0.9 | 3.5 | 0.00 | 0.01 | 0.00 | 92 | 1006.6 |
| 20260506050222 | 64 | 218 | 0.9 | 2.6 | 0.00 | 0.01 | 0.00 | 92 | 1006.6 |
| 20260506045022 | 64 | 213 | 0.9 | 3.5 | 0.00 | 0.01 | 0.01 | 94 | 1006.8 |
| 20260506044822 | 64 | 212 | 0.9 | 2.6 | 0.00 | 0.01 | 0.01 | 94 | 1006.9 |
| 20260506044622 | 64 | 216 | 0.0 | 1.7 | 0.00 | 0.01 | 0.01 | 94 | 1006.9 |
| 20260506044422 | 63 | 215 | 0.0 | 1.7 | 0.00 | 0.01 | 0.01 | 94 | 1007.0 |
| 20260506044222 | 63 | 218 | 0.0 | 1.7 | 0.00 | 0.01 | 0.01 | 95 | 1007.0 |
| 20260506044023 | 63 | 229 | 0.0 | 1.7 | 0.00 | 0.01 | 0.01 | 95 | 1006.9 |
| 20260506043822 | 63 | 226 | 0.0 | 1.7 | 0.00 | 0.01 | 0.01 | 95 | 1006.9 |
| 20260506043622 | 63 | 224 | 0.0 | 0.9 | 0.00 | 0.01 | 0.01 | 95 | 1006.9 |
| 20260506043423 | 63 | 224 | 0.0 | 0.9 | 0.00 | 0.01 | 0.01 | 95 | 1007.0 |
| 20260506043222 | 63 | 215 | 0.0 | 1.7 | 0.01 | 0.01 | 0.01 | 95 | 1006.9 |
| 20260506043022 | 63 | 208 | 0.0 | 1.7 | 0.01 | 0.01 | 0.01 | 95 | 1006.9 |
| 20260506042822 | 63 | 204 | 0.0 | 1.7 | 0.01 | 0.01 | 0.01 | 95 | 1006.8 |
| 20260506042622 | 63 | 204 | 0.0 | 1.7 | 0.01 | 0.01 | 0.01 | 95 | 1006.9 |
| 20260506042443 | 63 | 204 | 0.0 | 1.7 | 0.01 | 0.01 | 0.01 | 95 | 1006.9 |
| 20260506042223 | 63 | 211 | 0.0 | 0.9 | 0.01 | 0.01 | 0.01 | 95 | 1007.0 |
| 20260506042022 | 63 | 211 | 0.0 | 0.9 | 0.01 | 0.01 | 0.01 | 95 | 1007.0 |
| 20260506041822 | 62 | 211 | 0.0 | 0.9 | 0.01 | 0.01 | 0.01 | 95 | 1007.0 |
| 20260506041622 | 62 | 211 | 0.0 | 0.9 | 0.01 | 0.01 | 0.01 | 95 | 1007.0 |
| 20260506041422 | 62 | 211 | 0.0 | 0.9 | 0.01 | 0.01 | 0.01 | 95 | 1007.0 |
| 20260506041222 | 62 | 190 | 0.0 | 0.9 | 0.01 | 0.01 | 0.01 | 95 | 1007.1 |
| 20260506041022 | 62 | 187 | 0.0 | 0.9 | 0.01 | 0.01 | 0.01 | 95 | 1007.1 |
| 20260506040822 | 62 | 179 | 0.0 | 0.9 | 0.01 | 0.01 | 0.01 | 95 | 1007.1 |
| 20260506040643 | 62 | 176 | 0.0 | 0.9 | 0.01 | 0.01 | 0.01 | 95 | 1007.1 |
| 20260506040422 | 62 | 166 | 0.0 | 0.9 | 0.01 | 0.01 | 0.01 | 95 | 1007.0 |
| 20260506040222 | 62 | 178 | 0.0 | 0.9 | 0.01 | 0.01 | 0.01 | 95 | 1007.1 |
| 20260506040022 | 62 | 178 | 0.0 | 0.9 | 0.01 | 0.01 | 0.01 | 95 | 1007.1 |
| 20260506035822 | 62 | 0 | 0.0 | 0.0 | 0.01 | 0.01 | 0.01 | 94 | 1007.2 |
| 20260506035622 | 62 | 0 | 0.0 | 0.0 | 0.01 | 0.01 | 0.01 | 94 | 1007.2 |
| 20260506035422 | 62 | 0 | 0.0 | 0.0 | 0.01 | 0.01 | 0.01 | 94 | 1007.1 |
| 20260506035222 | 62 | 0 | 0.0 | 0.0 | 0.01 | 0.01 | 0.01 | 94 | 1007.2 |
| 20260506035043 | 62 | 0 | 0.0 | 0.0 | 0.01 | 0.01 | 0.01 | 94 | 1007.3 |
| 20260506034822 | 62 | 0 | 0.0 | 0.0 | 0.01 | 0.01 | 0.01 | 94 | 1007.3 |
| 20260506034622 | 62 | 0 | 0.0 | 0.0 | 0.01 | 0.01 | 0.01 | 94 | 1007.5 |
| 20260506034422 | 62 | 0 | 0.0 | 0.0 | 0.01 | 0.01 | 0.01 | 94 | 1007.5 |
| 20260506034222 | 62 | 0 | 0.0 | 0.0 | 0.01 | 0.01 | 0.01 | 94 | 1007.4 |
| 20260506034022 | 62 | 0 | 0.0 | 0.0 | 0.01 | 0.01 | 0.01 | 94 | 1007.4 |
| 20260506033843 | 62 | 0 | 0.0 | 0.0 | 0.01 | 0.01 | 0.01 | 94 | 1007.6 |
| 20260506033622 | 62 | 0 | 0.0 | 0.0 | 0.01 | 0.01 | 0.01 | 94 | 1007.6 |
| 20260506033443 | 62 | 0 | 0.0 | 0.0 | 0.01 | 0.01 | 0.01 | 94 | 1007.8 |
| 20260506033222 | 62 | 139 | 0.0 | 0.9 | 0.00 | 0.00 | 0.00 | 94 | 1007.6 |
| 20260506033023 | 62 | 140 | 0.0 | 0.9 | 0.00 | 0.00 | 0.00 | 94 | 1007.5 |
| 20260506032822 | 62 | 140 | 0.0 | 0.9 | 0.00 | 0.00 | 0.00 | 94 | 1007.4 |
| 20260506032643 | 62 | 140 | 0.0 | 0.9 | 0.00 | 0.00 | 0.00 | 94 | 1007.3 |
| 20260506032443 | 62 | 140 | 0.0 | 0.9 | 0.00 | 0.00 | 0.00 | 94 | 1007.4 |
| 20260506032222 | 62 | 140 | 0.0 | 0.9 | 0.00 | 0.00 | 0.00 | 93 | 1007.4 |
| 20260506032022 | 62 | 140 | 0.0 | 0.9 | 0.00 | 0.00 | 0.00 | 93 | 1007.5 |
| 20260506031822 | 62 | 140 | 0.0 | 0.9 | 0.00 | 0.00 | 0.00 | 93 | 1007.5 |
| 20260506031622 | 62 | 140 | 0.0 | 0.9 | 0.00 | 0.00 | 0.00 | 93 | 1007.6 |
| 20260506031422 | 62 | 140 | 0.0 | 0.9 | 0.00 | 0.00 | 0.00 | 93 | 1007.5 |
| 20260506031222 | 62 | 139 | 0.0 | 0.9 | 0.00 | 0.00 | 0.00 | 93 | 1007.4 |
| 20260506031043 | 62 | 139 | 0.0 | 0.9 | 0.00 | 0.00 | 0.00 | 93 | 1007.5 |
| 20260506030822 | 62 | 139 | 0.0 | 0.9 | 0.00 | 0.00 | 0.00 | 93 | 1007.5 |
| 20260506030622 | 62 | 139 | 0.0 | 0.9 | 0.00 | 0.00 | 0.00 | 93 | 1007.5 |
| 20260506030422 | 62 | 139 | 0.0 | 0.9 | 0.00 | 0.00 | 0.00 | 93 | 1007.6 |
| 20260506030243 | 62 | 0 | 0.0 | 0.0 | 0.00 | 0.00 | 0.00 | 93 | 1007.6 |
| 20260506030022 | 62 | 0 | 0.0 | 0.0 | 0.00 | 0.00 | 0.00 | 93 | 1007.6 |
| 20260506025822 | 62 | 0 | 0.0 | 0.0 | 0.00 | 0.00 | 0.00 | 93 | 1007.6 |
| 20260506025622 | 62 | 0 | 0.0 | 0.0 | 0.00 | 0.00 | 0.00 | 93 | 1007.6 |
| 20260506025422 | 62 | 0 | 0.0 | 0.0 | 0.00 | 0.00 | 0.00 | 93 | 1007.6 |
| 20260506025222 | 62 | 0 | 0.0 | 0.0 | 0.00 | 0.00 | 0.00 | 93 | 1007.6 |
| 20260506025022 | 62 | 0 | 0.0 | 0.0 | 0.00 | 0.00 | 0.00 | 93 | 1007.6 |
| 20260506024843 | 62 | 0 | 0.0 | 0.0 | 0.00 | 0.00 | 0.00 | 92 | 1007.7 |
| 20260506024622 | 62 | 0 | 0.0 | 0.0 | 0.00 | 0.00 | 0.00 | 92 | 1007.7 |
| 20260506024422 | 62 | 0 | 0.0 | 0.0 | 0.00 | 0.00 | 0.00 | 92 | 1007.7 |
| 20260506024222 | 62 | 0 | 0.0 | 0.0 | 0.00 | 0.00 | 0.00 | 92 | 1007.7 |
| 20260506024022 | 62 | 0 | 0.0 | 0.0 | 0.00 | 0.00 | 0.00 | 92 | 1007.7 |
| 20260506023843 | 62 | 140 | 0.0 | 0.9 | 0.00 | 0.00 | 0.00 | 92 | 1007.8 |
| 20260506023622 | 62 | 140 | 0.0 | 0.9 | 0.00 | 0.00 | 0.00 | 92 | 1007.8 |
| 20260506023422 | 62 | 140 | 0.0 | 0.9 | 0.00 | 0.00 | 0.00 | 92 | 1007.8 |
| 20260506023222 | 62 | 140 | 0.0 | 0.9 | 0.00 | 0.00 | 0.00 | 92 | 1007.7 |
| 20260506023022 | 62 | 138 | 0.0 | 0.9 | 0.00 | 0.00 | 0.00 | 92 | 1007.8 |
| 20260506022822 | 62 | 137 | 0.0 | 0.9 | 0.00 | 0.00 | 0.00 | 92 | 1007.8 |
| 20260506022622 | 62 | 137 | 0.0 | 0.9 | 0.00 | 0.00 | 0.00 | 92 | 1007.8 |
| 20260506022422 | 62 | 137 | 0.0 | 0.9 | 0.00 | 0.00 | 0.00 | 92 | 1007.9 |
| 20260506022243 | 62 | 137 | 0.0 | 0.9 | 0.00 | 0.00 | 0.00 | 92 | 1008.0 |
| 20260506022022 | 62 | 137 | 0.0 | 0.9 | 0.00 | 0.00 | 0.00 | 92 | 1008.1 |
| 20260506021822 | 62 | 137 | 0.0 | 0.9 | 0.00 | 0.00 | 0.00 | 92 | 1008.2 |
| 20260506021643 | 62 | 137 | 0.0 | 0.9 | 0.00 | 0.00 | 0.00 | 92 | 1008.1 |
| 20260506021423 | 61 | 137 | 0.0 | 0.9 | 0.00 | 0.00 | 0.00 | 92 | 1008.1 |
| 20260506021222 | 61 | 0 | 0.0 | 0.0 | 0.00 | 0.00 | 0.00 | 91 | 1008.0 |
| 20260506021022 | 61 | 0 | 0.0 | 0.0 | 0.00 | 0.00 | 0.00 | 91 | 1008.0 |
| 20260506020822 | 61 | 0 | 0.0 | 0.0 | 0.00 | 0.00 | 0.00 | 91 | 1008.1 |
| 20260506020622 | 61 | 0 | 0.0 | 0.0 | 0.00 | 0.00 | 0.00 | 91 | 1008.1 |
| 20260506020422 | 61 | 0 | 0.0 | 0.0 | 0.00 | 0.00 | 0.00 | 91 | 1008.2 |
| 20260506020222 | 61 | 0 | 0.0 | 0.0 | 0.00 | 0.00 | 0.00 | 91 | 1008.1 |
| 20260506020043 | 61 | 0 | 0.0 | 0.0 | 0.00 | 0.00 | 0.00 | 91 | 1008.2 |
| 20260506015823 | 61 | 0 | 0.0 | 0.0 | 0.00 | 0.00 | 0.00 | 91 | 1008.2 |
| 20260506015622 | 61 | 137 | 0.0 | 0.9 | 0.00 | 0.00 | 0.00 | 92 | 1008.2 |
| 20260506015422 | 61 | 137 | 0.0 | 0.9 | 0.00 | 0.00 | 0.00 | 92 | 1008.3 |
| 20260506015222 | 61 | 137 | 0.0 | 0.9 | 0.00 | 0.00 | 0.00 | 91 | 1008.3 |
| 20260506015022 | 61 | 135 | 0.0 | 0.9 | 0.00 | 0.00 | 0.00 | 91 | 1008.2 |
| 20260506014822 | 61 | 135 | 0.0 | 0.9 | 0.00 | 0.00 | 0.00 | 91 | 1008.2 |
| 20260506014622 | 61 | 134 | 0.0 | 0.9 | 0.00 | 0.00 | 0.00 | 91 | 1008.2 |
| 20260506014422 | 61 | 134 | 0.0 | 1.7 | 0.00 | 0.00 | 0.00 | 91 | 1008.3 |
| 20260506014222 | 61 | 138 | 0.0 | 1.7 | 0.00 | 0.00 | 0.00 | 91 | 1008.1 |
| 20260506014043 | 61 | 141 | 0.0 | 1.7 | 0.00 | 0.00 | 0.00 | 91 | 1008.1 |
| 20260506013822 | 61 | 141 | 0.0 | 1.7 | 0.00 | 0.00 | 0.00 | 91 | 1008.1 |
| 20260506013643 | 61 | 141 | 0.0 | 1.7 | 0.00 | 0.00 | 0.00 | 91 | 1008.1 |
| 20260506013443 | 62 | 147 | 0.0 | 0.9 | 0.00 | 0.00 | 0.00 | 91 | 1008.1 |
| 20260506013243 | 62 | 150 | 0.0 | 0.9 | 0.00 | 0.00 | 0.00 | 91 | 1008.1 |
| 20260506013022 | 62 | 159 | 0.0 | 0.9 | 0.00 | 0.00 | 0.00 | 91 | 1008.1 |
| 20260506012822 | 62 | 159 | 0.0 | 0.9 | 0.00 | 0.00 | 0.00 | 91 | 1008.1 |
| 20260506012622 | 62 | 159 | 0.0 | 0.9 | 0.00 | 0.00 | 0.00 | 91 | 1008.1 |
| 20260506012422 | 62 | 168 | 0.0 | 0.9 | 0.00 | 0.00 | 0.00 | 90 | 1008.1 |
| 20260506012222 | 62 | 172 | 0.0 | 0.9 | 0.00 | 0.00 | 0.00 | 90 | 1008.1 |
| 20260506012022 | 62 | 0 | 0.0 | 0.0 | 0.00 | 0.00 | 0.00 | 90 | 1008.1 |
| 20260506011822 | 62 | 0 | 0.0 | 0.0 | 0.00 | 0.00 | 0.00 | 90 | 1008.1 |
| 20260506011623 | 62 | 0 | 0.0 | 0.0 | 0.00 | 0.00 | 0.00 | 90 | 1008.1 |
| 20260506011422 | 62 | 0 | 0.0 | 0.0 | 0.00 | 0.00 | 0.00 | 90 | 1008.1 |
| 20260506011222 | 62 | 0 | 0.0 | 0.0 | 0.00 | 0.00 | 0.00 | 90 | 1008.2 |
| 20260506011043 | 62 | 0 | 0.0 | 0.0 | 0.00 | 0.00 | 0.00 | 90 | 1008.2 |
| 20260506010843 | 62 | 0 | 0.0 | 0.0 | 0.00 | 0.00 | 0.00 | 90 | 1008.2 |
| 20260506010622 | 62 | 0 | 0.0 | 0.0 | 0.00 | 0.00 | 0.00 | 89 | 1008.2 |
| 20260506010422 | 62 | 0 | 0.0 | 0.0 | 0.00 | 0.00 | 0.00 | 89 | 1008.3 |
| 20260506010222 | 62 | 0 | 0.0 | 0.0 | 0.00 | 0.00 | 0.00 | 89 | 1008.4 |
| 20260506010022 | 62 | 0 | 0.0 | 0.0 | 0.00 | 0.00 | 0.00 | 89 | 1008.3 |
| 20260506005822 | 62 | 0 | 0.0 | 0.0 | 0.00 | 0.00 | 0.00 | 89 | 1008.5 |
| 20260506005622 | 62 | 0 | 0.0 | 0.0 | 0.00 | 0.00 | 0.00 | 88 | 1008.6 |
| 20260506005422 | 62 | 0 | 0.0 | 0.0 | 0.00 | 0.00 | 0.00 | 88 | 1008.6 |
| 20260506005243 | 62 | 0 | 0.0 | 0.0 | 0.00 | 0.00 | 0.00 | 88 | 1008.7 |
| 20260506005022 | 62 | 0 | 0.0 | 0.0 | 0.00 | 0.00 | 0.00 | 88 | 1008.6 |
| 20260506004822 | 62 | 0 | 0.0 | 0.0 | 0.00 | 0.00 | 0.00 | 88 | 1008.7 |
| 20260506004643 | 62 | 0 | 0.0 | 0.0 | 0.00 | 0.00 | 0.00 | 88 | 1008.6 |
| 20260506004422 | 63 | 0 | 0.0 | 0.0 | 0.00 | 0.00 | 0.00 | 88 | 1008.7 |
| 20260506004222 | 63 | 0 | 0.0 | 0.0 | 0.00 | 0.00 | 0.00 | 87 | 1008.6 |
| 20260506004022 | 63 | 0 | 0.0 | 0.0 | 0.00 | 0.00 | 0.00 | 87 | 1008.6 |
| 20260506003822 | 63 | 0 | 0.0 | 0.0 | 0.00 | 0.00 | 0.00 | 87 | 1008.6 |
| 20260506003622 | 63 | 0 | 0.0 | 0.0 | 0.00 | 0.00 | 0.00 | 87 | 1008.5 |
| 20260506003422 | 63 | 0 | 0.0 | 0.0 | 0.00 | 0.00 | 0.00 | 87 | 1008.6 |
| 20260506003223 | 63 | 0 | 0.0 | 0.0 | 0.00 | 0.00 | 0.00 | 86 | 1008.6 |
| 20260506003043 | 63 | 0 | 0.0 | 0.0 | 0.00 | 0.00 | 0.00 | 86 | 1008.7 |
| 20260506002822 | 63 | 0 | 0.0 | 0.0 | 0.00 | 0.00 | 0.00 | 86 | 1008.7 |
| 20260506002643 | 63 | 0 | 0.0 | 0.0 | 0.00 | 0.00 | 0.00 | 86 | 1008.7 |
| 20260506002422 | 63 | 0 | 0.0 | 0.0 | 0.00 | 0.00 | 0.00 | 86 | 1008.8 |
| 20260506002222 | 63 | 0 | 0.0 | 0.0 | 0.00 | 0.00 | 0.00 | 86 | 1008.8 |
| 20260506002023 | 63 | 0 | 0.0 | 0.0 | 0.00 | 0.00 | 0.00 | 85 | 1008.7 |
| 20260506001822 | 63 | 0 | 0.0 | 0.0 | 0.00 | 0.00 | 0.00 | 85 | 1008.7 |
| 20260506001622 | 63 | 223 | 0.0 | 0.9 | 0.00 | 0.00 | 0.00 | 84 | 1008.7 |
| 20260506001422 | 63 | 223 | 0.0 | 0.9 | 0.00 | 0.00 | 0.00 | 84 | 1008.8 |
| 20260506001222 | 64 | 224 | 0.9 | 0.9 | 0.00 | 0.00 | 0.00 | 84 | 1008.9 |
| 20260506001022 | 64 | 219 | 0.9 | 1.7 | 0.00 | 0.00 | 0.00 | 84 | 1008.9 |
| 20260506000822 | 64 | 219 | 0.9 | 1.7 | 0.00 | 0.00 | 0.00 | 83 | 1008.9 |
| 20260506000622 | 64 | 220 | 0.9 | 1.7 | 0.00 | 0.00 | 0.00 | 82 | 1008.8 |
| 20260506000445 | 64 | 217 | 0.9 | 1.7 | 0.00 | 0.00 | 0.00 | 82 | 1008.8 |
| 20260506000243 | 64 | 214 | 0.9 | 1.7 | 0.00 | 0.00 | 0.00 | 82 | 1009.0 |
| 20260506000022 | 65 | 217 | 0.0 | 2.6 | 0.00 | 0.00 | 0.00 | 81 | 1009.0 |
| 20260505235822 | 65 | 219 | 0.0 | 2.6 | 0.00 | 0.00 | 0.00 | 81 | 1009.2 |
| 20260505235622 | 65 | 221 | 0.0 | 2.6 | 0.00 | 0.00 | 0.00 | 80 | 1009.2 |
| 20260505235443 | 65 | 227 | 0.0 | 2.6 | 0.00 | 0.00 | 0.00 | 79 | 1009.2 |
| 20260505235222 | 65 | 236 | 0.9 | 1.7 | 0.00 | 0.00 | 0.00 | 79 | 1009.2 |
| 20260505235022 | 66 | 232 | 0.9 | 1.7 | 0.00 | 0.00 | 0.00 | 79 | 1009.3 |
| 20260505234843 | 66 | 223 | 0.9 | 3.5 | 0.00 | 0.00 | 0.00 | 79 | 1009.2 |
| 20260505234643 | 66 | 219 | 0.9 | 3.5 | 0.00 | 0.00 | 0.00 | 78 | 1009.0 |
| 20260505234422 | 66 | 219 | 0.9 | 3.5 | 0.00 | 0.00 | 0.00 | 77 | 1008.8 |
| 20260505234222 | 67 | 218 | 1.7 | 3.5 | 0.00 | 0.00 | 0.00 | 76 | 1008.6 |
| 20260505234022 | 67 | 215 | 1.7 | 3.5 | 0.00 | 0.00 | 0.00 | 75 | 1008.6 |
| 20260505233822 | 67 | 213 | 2.6 | 3.5 | 0.00 | 0.00 | 0.00 | 74 | 1008.5 |
| 20260505233622 | 68 | 211 | 2.6 | 3.5 | 0.00 | 0.00 | 0.00 | 74 | 1008.4 |
| 20260505233443 | 68 | 210 | 2.6 | 3.5 | 0.00 | 0.00 | 0.00 | 73 | 1008.6 |
| 20260505233222 | 69 | 208 | 2.6 | 3.5 | 0.00 | 0.00 | 0.00 | 72 | 1008.7 |
| 20260505233022 | 70 | 207 | 2.6 | 3.5 | 0.00 | 0.00 | 0.00 | 71 | 1008.7 |
| 20260505232822 | 70 | 170 | 2.6 | 1.7 | 0.00 | 0.00 | 0.00 | 69 | 1008.6 |
| 20260505231622 | 72 | 212 | 1.7 | 7.8 | 0.00 | 0.00 | 0.00 | 61 | 1008.3 |
| 20260505231422 | 72 | 211 | 1.7 | 7.8 | 0.00 | 0.00 | 0.00 | 60 | 1008.2 |
| 20260505231222 | 72 | 214 | 1.7 | 7.8 | 0.00 | 0.00 | 0.00 | 59 | 1008.4 |
| 20260505231043 | 73 | 217 | 2.6 | 7.8 | 0.00 | 0.00 | 0.00 | 59 | 1008.4 |
| 20260505230822 | 73 | 220 | 2.6 | 7.8 | 0.00 | 0.00 | 0.00 | 58 | 1008.5 |
| 20260505230623 | 73 | 219 | 3.5 | 7.8 | 0.00 | 0.00 | 0.00 | 59 | 1008.5 |
| 20260505230422 | 73 | 217 | 3.5 | 7.8 | 0.00 | 0.00 | 0.00 | 58 | 1008.5 |
| 20260505230222 | 73 | 219 | 3.5 | 8.7 | 0.00 | 0.00 | 0.00 | 59 | 1008.5 |
| 20260505230022 | 73 | 220 | 3.5 | 8.7 | 0.00 | 0.00 | 0.00 | 58 | 1008.5 |
| 20260505225822 | 73 | 220 | 3.5 | 8.7 | 0.00 | 0.00 | 0.00 | 58 | 1008.4 |
| 20260505225622 | 73 | 221 | 3.5 | 8.7 | 0.00 | 0.00 | 0.00 | 58 | 1008.3 |
| 20260505225422 | 73 | 221 | 3.5 | 8.7 | 0.00 | 0.00 | 0.00 | 58 | 1008.2 |
| 20260505225222 | 74 | 221 | 2.6 | 8.7 | 0.00 | 0.00 | 0.00 | 58 | 1008.3 |
| 20260505225022 | 74 | 218 | 2.6 | 8.7 | 0.00 | 0.00 | 0.00 | 57 | 1008.2 |
| 20260505224823 | 74 | 220 | 1.7 | 8.7 | 0.00 | 0.00 | 0.00 | 57 | 1008.1 |
| 20260505224622 | 74 | 217 | 1.7 | 6.1 | 0.00 | 0.00 | 0.00 | 57 | 1008.1 |
| 20260505224443 | 74 | 217 | 1.7 | 6.1 | 0.00 | 0.00 | 0.00 | 58 | 1008.0 |
| 20260505224222 | 74 | 218 | 2.6 | 6.1 | 0.00 | 0.00 | 0.00 | 58 | 1007.9 |
| 20260505224022 | 74 | 219 | 2.6 | 7.8 | 0.00 | 0.00 | 0.00 | 58 | 1007.9 |
| 20260505223822 | 74 | 216 | 2.6 | 7.8 | 0.00 | 0.00 | 0.00 | 58 | 1007.9 |
| 20260505223622 | 74 | 218 | 3.5 | 7.8 | 0.00 | 0.00 | 0.00 | 58 | 1007.9 |
| 20260505223422 | 74 | 217 | 2.6 | 7.8 | 0.00 | 0.00 | 0.00 | 58 | 1008.1 |
| 20260505223222 | 74 | 216 | 2.6 | 7.8 | 0.00 | 0.00 | 0.00 | 57 | 1008.1 |
| 20260505223022 | 74 | 214 | 2.6 | 7.0 | 0.00 | 0.00 | 0.00 | 57 | 1008.0 |
| 20260505222822 | 74 | 216 | 2.6 | 7.0 | 0.00 | 0.00 | 0.00 | 57 | 1008.0 |
| 20260505222622 | 74 | 215 | 2.6 | 7.0 | 0.00 | 0.00 | 0.00 | 57 | 1008.0 |
| 20260505222443 | 75 | 216 | 2.6 | 7.0 | 0.00 | 0.00 | 0.00 | 57 | 1008.0 |
| 20260505222243 | 75 | 219 | 2.6 | 7.0 | 0.00 | 0.00 | 0.00 | 57 | 1008.1 |
| 20260505222022 | 75 | 218 | 2.6 | 6.1 | 0.00 | 0.00 | 0.00 | 57 | 1008.0 |
| 20260505221822 | 75 | 216 | 2.6 | 6.1 | 0.00 | 0.00 | 0.00 | 57 | 1008.0 |
| 20260505221622 | 75 | 215 | 2.6 | 6.1 | 0.00 | 0.00 | 0.00 | 57 | 1008.0 |
| 20260505221422 | 75 | 214 | 2.6 | 6.1 | 0.00 | 0.00 | 0.00 | 58 | 1008.0 |
| 20260505221222 | 75 | 214 | 2.6 | 6.1 | 0.00 | 0.00 | 0.00 | 57 | 1008.1 |
| 20260505221022 | 75 | 215 | 2.6 | 6.1 | 0.00 | 0.00 | 0.00 | 57 | 1008.2 |
| 20260505220843 | 75 | 215 | 1.7 | 6.1 | 0.00 | 0.00 | 0.00 | 57 | 1008.2 |
| 20260505220622 | 75 | 217 | 1.7 | 6.1 | 0.00 | 0.00 | 0.00 | 57 | 1008.2 |
| 20260505220443 | 75 | 217 | 1.7 | 6.1 | 0.00 | 0.00 | 0.00 | 58 | 1008.3 |
| 20260505220244 | 75 | 218 | 1.7 | 6.1 | 0.00 | 0.00 | 0.00 | 58 | 1008.3 |
| 20260505220022 | 75 | 216 | 1.7 | 4.3 | 0.00 | 0.00 | 0.00 | 59 | 1008.3 |
| 20260505215822 | 75 | 218 | 1.7 | 4.3 | 0.00 | 0.00 | 0.00 | 59 | 1008.2 |
| 20260505215622 | 75 | 216 | 1.7 | 5.2 | 0.00 | 0.00 | 0.00 | 59 | 1008.3 |
| 20260505215422 | 75 | 214 | 1.7 | 5.2 | 0.00 | 0.00 | 0.00 | 58 | 1008.2 |
| 20260505215222 | 75 | 213 | 1.7 | 5.2 | 0.00 | 0.00 | 0.00 | 59 | 1008.2 |
| 20260505215022 | 75 | 212 | 1.7 | 5.2 | 0.00 | 0.00 | 0.00 | 58 | 1008.2 |
| 20260505214822 | 75 | 209 | 1.7 | 5.2 | 0.00 | 0.00 | 0.00 | 59 | 1008.2 |
| 20260505214622 | 75 | 204 | 1.7 | 4.3 | 0.00 | 0.00 | 0.00 | 60 | 1008.3 |
| 20260505214422 | 75 | 202 | 1.7 | 4.3 | 0.00 | 0.00 | 0.00 | 60 | 1008.3 |
| 20260505214222 | 75 | 203 | 1.7 | 4.3 | 0.00 | 0.00 | 0.00 | 59 | 1008.3 |
| 20260505214043 | 75 | 199 | 1.7 | 4.3 | 0.00 | 0.00 | 0.00 | 60 | 1008.3 |
| 20260505213822 | 75 | 196 | 1.7 | 4.3 | 0.00 | 0.00 | 0.00 | 58 | 1008.2 |
| 20260505213622 | 75 | 191 | 1.7 | 4.3 | 0.00 | 0.00 | 0.00 | 58 | 1008.3 |
| 20260505213422 | 75 | 194 | 1.7 | 4.3 | 0.00 | 0.00 | 0.00 | 58 | 1008.3 |
| 20260505213222 | 75 | 189 | 1.7 | 4.3 | 0.00 | 0.00 | 0.00 | 58 | 1008.4 |
| 20260505213022 | 75 | 187 | 1.7 | 4.3 | 0.00 | 0.00 | 0.00 | 59 | 1008.5 |
| 20260505212822 | 75 | 185 | 1.7 | 4.3 | 0.00 | 0.00 | 0.00 | 58 | 1008.4 |
| 20260505212622 | 75 | 184 | 1.7 | 4.3 | 0.00 | 0.00 | 0.00 | 57 | 1008.5 |
| 20260505212422 | 75 | 178 | 1.7 | 4.3 | 0.00 | 0.00 | 0.00 | 58 | 1008.5 |
| 20260505212223 | 76 | 183 | 1.7 | 4.3 | 0.00 | 0.00 | 0.00 | 57 | 1008.4 |
| 20260505212022 | 76 | 192 | 1.7 | 5.2 | 0.00 | 0.00 | 0.00 | 57 | 1008.5 |
| 20260505211822 | 76 | 203 | 1.7 | 5.2 | 0.00 | 0.00 | 0.00 | 58 | 1008.4 |
| 20260505211622 | 76 | 210 | 1.7 | 5.2 | 0.00 | 0.00 | 0.00 | 58 | 1008.4 |
| 20260505211422 | 76 | 214 | 1.7 | 5.2 | 0.00 | 0.00 | 0.00 | 58 | 1008.4 |
| 20260505211222 | 76 | 214 | 1.7 | 5.2 | 0.00 | 0.00 | 0.00 | 58 | 1008.5 |
| 20260505211043 | 75 | 213 | 1.7 | 4.3 | 0.00 | 0.00 | 0.00 | 58 | 1008.4 |
| 20260505210822 | 75 | 210 | 1.7 | 2.6 | 0.00 | 0.00 | 0.00 | 59 | 1008.4 |
| 20260505210622 | 75 | 214 | 1.7 | 3.5 | 0.00 | 0.00 | 0.00 | 58 | 1008.4 |
| 20260505210422 | 75 | 218 | 1.7 | 4.3 | 0.00 | 0.00 | 0.00 | 58 | 1008.5 |
| 20260505210222 | 75 | 219 | 1.7 | 4.3 | 0.00 | 0.00 | 0.00 | 57 | 1008.6 |
| 20260505210022 | 75 | 215 | 1.7 | 5.2 | 0.00 | 0.00 | 0.00 | 58 | 1008.6 |
| 20260505205822 | 75 | 215 | 2.6 | 5.2 | 0.00 | 0.00 | 0.00 | 58 | 1008.7 |
| 20260505205622 | 75 | 214 | 2.6 | 7.0 | 0.00 | 0.00 | 0.00 | 58 | 1008.7 |
| 20260505205443 | 75 | 211 | 2.6 | 7.0 | 0.00 | 0.00 | 0.00 | 58 | 1008.6 |
| 20260505205243 | 75 | 212 | 2.6 | 7.0 | 0.00 | 0.00 | 0.00 | 56 | 1008.7 |
| 20260505205023 | 75 | 212 | 2.6 | 7.0 | 0.00 | 0.00 | 0.00 | 57 | 1008.7 |
| 20260505204822 | 75 | 212 | 2.6 | 7.0 | 0.00 | 0.00 | 0.00 | 57 | 1008.8 |
| 20260505204643 | 75 | 210 | 2.6 | 5.2 | 0.00 | 0.00 | 0.00 | 56 | 1008.6 |
| 20260505204422 | 75 | 208 | 2.6 | 5.2 | 0.00 | 0.00 | 0.00 | 55 | 1008.6 |
| 20260505204222 | 75 | 208 | 2.6 | 5.2 | 0.00 | 0.00 | 0.00 | 56 | 1008.7 |
| 20260505204044 | 75 | 212 | 2.6 | 5.2 | 0.00 | 0.00 | 0.00 | 57 | 1008.8 |
| 20260505203822 | 75 | 211 | 2.6 | 5.2 | 0.00 | 0.00 | 0.00 | 56 | 1008.9 |
| 20260505203622 | 75 | 211 | 2.6 | 5.2 | 0.00 | 0.00 | 0.00 | 55 | 1008.9 |
| 20260505203422 | 75 | 211 | 2.6 | 7.0 | 0.00 | 0.00 | 0.00 | 56 | 1008.9 |
| 20260505203222 | 75 | 210 | 2.6 | 7.0 | 0.00 | 0.00 | 0.00 | 56 | 1008.9 |
| 20260505203043 | 75 | 209 | 2.6 | 7.0 | 0.00 | 0.00 | 0.00 | 57 | 1009.0 |
| 20260505202822 | 75 | 209 | 2.6 | 7.0 | 0.00 | 0.00 | 0.00 | 56 | 1008.9 |
| 20260505202622 | 75 | 210 | 3.5 | 7.0 | 0.00 | 0.00 | 0.00 | 55 | 1008.9 |
| 20260505202422 | 75 | 214 | 3.5 | 7.0 | 0.00 | 0.00 | 0.00 | 55 | 1009.0 |
| 20260505202222 | 75 | 211 | 3.5 | 7.0 | 0.00 | 0.00 | 0.00 | 55 | 1009.0 |
| 20260505202022 | 75 | 212 | 3.5 | 7.0 | 0.00 | 0.00 | 0.00 | 55 | 1009.0 |
| 20260505201823 | 76 | 213 | 3.5 | 7.8 | 0.00 | 0.00 | 0.00 | 54 | 1008.9 |
| 20260505201622 | 76 | 212 | 3.5 | 7.8 | 0.00 | 0.00 | 0.00 | 55 | 1009.0 |
| 20260505201443 | 76 | 211 | 2.6 | 7.8 | 0.00 | 0.00 | 0.00 | 55 | 1009.0 |
| 20260505201222 | 76 | 214 | 2.6 | 7.8 | 0.00 | 0.00 | 0.00 | 55 | 1009.0 |
| 20260505201022 | 76 | 210 | 2.6 | 7.8 | 0.00 | 0.00 | 0.00 | 55 | 1009.1 |
| 20260505200822 | 76 | 212 | 2.6 | 6.1 | 0.00 | 0.00 | 0.00 | 55 | 1009.2 |
| 20260505200622 | 76 | 212 | 2.6 | 6.1 | 0.00 | 0.00 | 0.00 | 57 | 1009.2 |
| 20260505200422 | 76 | 209 | 2.6 | 6.1 | 0.00 | 0.00 | 0.00 | 56 | 1009.2 |
| 20260505200222 | 76 | 209 | 2.6 | 6.1 | 0.00 | 0.00 | 0.00 | 57 | 1009.3 |
| 20260505200022 | 76 | 212 | 2.6 | 6.1 | 0.00 | 0.00 | 0.00 | 57 | 1009.2 |
| 20260505195822 | 76 | 206 | 2.6 | 6.1 | 0.00 | 0.00 | 0.00 | 57 | 1009.3 |
| 20260505195623 | 75 | 210 | 2.6 | 6.1 | 0.00 | 0.00 | 0.00 | 58 | 1009.3 |
| 20260505195422 | 75 | 211 | 1.7 | 6.1 | 0.00 | 0.00 | 0.00 | 60 | 1009.3 |
| 20260505195243 | 76 | 203 | 1.7 | 6.1 | 0.00 | 0.00 | 0.00 | 58 | 1009.2 |
| 20260505195022 | 75 | 199 | 2.6 | 6.1 | 0.00 | 0.00 | 0.00 | 58 | 1009.3 |
| 20260505194822 | 75 | 206 | 2.6 | 6.1 | 0.00 | 0.00 | 0.00 | 58 | 1009.4 |
| 20260505194643 | 75 | 197 | 2.6 | 5.2 | 0.00 | 0.00 | 0.00 | 59 | 1009.4 |
| 20260505194422 | 75 | 200 | 3.5 | 5.2 | 0.00 | 0.00 | 0.00 | 59 | 1009.3 |
| 20260505194243 | 75 | 207 | 3.5 | 6.1 | 0.00 | 0.00 | 0.00 | 58 | 1009.2 |
| 20260505194022 | 75 | 210 | 3.5 | 6.1 | 0.00 | 0.00 | 0.00 | 59 | 1009.3 |
| 20260505193843 | 75 | 207 | 3.5 | 6.1 | 0.00 | 0.00 | 0.00 | 59 | 1009.3 |
| 20260505193622 | 75 | 213 | 3.5 | 7.8 | 0.00 | 0.00 | 0.00 | 58 | 1009.4 |
| 20260505193443 | 75 | 214 | 3.5 | 7.8 | 0.00 | 0.00 | 0.00 | 58 | 1009.4 |
| 20260505193222 | 75 | 211 | 2.6 | 7.8 | 0.00 | 0.00 | 0.00 | 58 | 1009.6 |
| 20260505193022 | 75 | 211 | 2.6 | 8.7 | 0.00 | 0.00 | 0.00 | 57 | 1009.5 |
| 20260505192822 | 75 | 205 | 2.6 | 8.7 | 0.00 | 0.00 | 0.00 | 56 | 1009.5 |
| 20260505192622 | 75 | 202 | 2.6 | 8.7 | 0.00 | 0.00 | 0.00 | 56 | 1009.6 |
| 20260505192422 | 75 | 200 | 2.6 | 8.7 | 0.00 | 0.00 | 0.00 | 56 | 1009.7 |
| 20260505192222 | 75 | 202 | 2.6 | 8.7 | 0.00 | 0.00 | 0.00 | 56 | 1009.8 |
| 20260505192043 | 75 | 202 | 2.6 | 6.1 | 0.00 | 0.00 | 0.00 | 56 | 1009.9 |
| 20260505191822 | 75 | 209 | 1.7 | 7.0 | 0.00 | 0.00 | 0.00 | 57 | 1009.9 |
| 20260505191644 | 75 | 213 | 1.7 | 7.0 | 0.00 | 0.00 | 0.00 | 58 | 1009.9 |
| 20260505191422 | 75 | 210 | 1.7 | 7.0 | 0.00 | 0.00 | 0.00 | 57 | 1009.9 |
| 20260505191222 | 75 | 213 | 1.7 | 7.0 | 0.00 | 0.00 | 0.00 | 57 | 1009.9 |
| 20260505191022 | 75 | 211 | 1.7 | 7.0 | 0.00 | 0.00 | 0.00 | 59 | 1009.9 |
| 20260505190822 | 75 | 211 | 2.6 | 5.2 | 0.00 | 0.00 | 0.00 | 59 | 1010.0 |
| 20260505190622 | 75 | 212 | 2.6 | 5.2 | 0.00 | 0.00 | 0.00 | 59 | 1010.0 |
| 20260505190422 | 75 | 215 | 2.6 | 7.0 | 0.00 | 0.00 | 0.00 | 58 | 1009.9 |
| 20260505190222 | 75 | 211 | 2.6 | 7.0 | 0.00 | 0.00 | 0.00 | 58 | 1010.0 |
| 20260505190022 | 74 | 210 | 2.6 | 7.0 | 0.00 | 0.00 | 0.00 | 60 | 1010.0 |
| 20260505185822 | 74 | 207 | 2.6 | 7.0 | 0.00 | 0.00 | 0.00 | 58 | 1009.9 |
| 20260505185643 | 74 | 206 | 2.6 | 7.0 | 0.00 | 0.00 | 0.00 | 58 | 1010.1 |
| 20260505185422 | 74 | 199 | 2.6 | 7.0 | 0.00 | 0.00 | 0.00 | 58 | 1010.0 |
| 20260505185243 | 74 | 198 | 2.6 | 7.0 | 0.00 | 0.00 | 0.00 | 58 | 1010.1 |
| 20260505185043 | 74 | 200 | 2.6 | 7.0 | 0.00 | 0.00 | 0.00 | 58 | 1010.1 |
| 20260505184822 | 74 | 195 | 2.6 | 7.0 | 0.00 | 0.00 | 0.00 | 59 | 1010.1 |
| 20260505184622 | 74 | 197 | 2.6 | 7.0 | 0.00 | 0.00 | 0.00 | 59 | 1010.1 |
| 20260505184422 | 74 | 201 | 2.6 | 6.1 | 0.00 | 0.00 | 0.00 | 60 | 1010.1 |
| 20260505184223 | 73 | 206 | 2.6 | 6.1 | 0.00 | 0.00 | 0.00 | 61 | 1010.2 |
| 20260505184022 | 73 | 207 | 2.6 | 5.2 | 0.00 | 0.00 | 0.00 | 60 | 1010.1 |
| 20260505183822 | 73 | 212 | 1.7 | 5.2 | 0.00 | 0.00 | 0.00 | 62 | 1010.1 |
| 20260505183622 | 72 | 214 | 1.7 | 5.2 | 0.00 | 0.00 | 0.00 | 61 | 1010.1 |
| 20260505183443 | 72 | 216 | 1.7 | 5.2 | 0.00 | 0.00 | 0.00 | 62 | 1010.1 |
| 20260505183222 | 72 | 217 | 1.7 | 6.1 | 0.00 | 0.00 | 0.00 | 63 | 1010.2 |
| 20260505183022 | 71 | 217 | 1.7 | 6.1 | 0.00 | 0.00 | 0.00 | 63 | 1010.2 |
| 20260505182822 | 71 | 217 | 1.7 | 6.1 | 0.00 | 0.00 | 0.00 | 64 | 1010.1 |
| 20260505182622 | 71 | 216 | 1.7 | 6.1 | 0.00 | 0.00 | 0.00 | 64 | 1010.1 |
| 20260505182422 | 71 | 214 | 1.7 | 6.1 | 0.00 | 0.00 | 0.00 | 63 | 1010.1 |
| 20260505182222 | 71 | 212 | 1.7 | 7.0 | 0.00 | 0.00 | 0.00 | 64 | 1010.2 |
| 20260505182022 | 71 | 208 | 1.7 | 7.0 | 0.00 | 0.00 | 0.00 | 65 | 1010.3 |
| 20260505181822 | 71 | 209 | 1.7 | 7.0 | 0.00 | 0.00 | 0.00 | 64 | 1010.2 |
| 20260505181622 | 71 | 206 | 1.7 | 7.0 | 0.00 | 0.00 | 0.00 | 64 | 1010.3 |
| 20260505181422 | 71 | 206 | 2.6 | 7.0 | 0.00 | 0.00 | 0.00 | 64 | 1010.3 |
| 20260505181243 | 71 | 206 | 2.6 | 5.2 | 0.00 | 0.00 | 0.00 | 64 | 1010.3 |
| 20260505181022 | 71 | 210 | 2.6 | 5.2 | 0.00 | 0.00 | 0.00 | 66 | 1010.3 |
| 20260505180822 | 71 | 212 | 2.6 | 6.1 | 0.00 | 0.00 | 0.00 | 66 | 1010.3 |
| 20260505180622 | 71 | 217 | 2.6 | 6.1 | 0.00 | 0.00 | 0.00 | 65 | 1010.3 |
| 20260505180422 | 71 | 218 | 1.7 | 6.1 | 0.00 | 0.00 | 0.00 | 65 | 1010.4 |
| 20260505180222 | 71 | 219 | 1.7 | 6.1 | 0.00 | 0.00 | 0.00 | 65 | 1010.3 |
| 20260505180022 | 71 | 218 | 1.7 | 6.1 | 0.00 | 0.00 | 0.00 | 65 | 1010.3 |
| 20260505175822 | 71 | 217 | 1.7 | 6.1 | 0.00 | 0.00 | 0.00 | 65 | 1010.5 |
| 20260505175622 | 71 | 214 | 1.7 | 6.1 | 0.00 | 0.00 | 0.00 | 66 | 1010.5 |
| 20260505175422 | 71 | 209 | 1.7 | 4.3 | 0.00 | 0.00 | 0.00 | 66 | 1010.5 |
| 20260505175222 | 71 | 211 | 1.7 | 4.3 | 0.00 | 0.00 | 0.00 | 66 | 1010.6 |
| 20260505175022 | 71 | 211 | 1.7 | 4.3 | 0.00 | 0.00 | 0.00 | 66 | 1010.6 |
| 20260505174822 | 71 | 209 | 2.6 | 5.2 | 0.00 | 0.07 | 0.00 | 65 | 1010.6 |
| 20260505174622 | 71 | 209 | 2.6 | 5.2 | 0.00 | 0.07 | 0.00 | 65 | 1010.7 |
| 20260505174422 | 71 | 210 | 2.6 | 5.2 | 0.00 | 0.07 | 0.00 | 65 | 1010.6 |
| 20260505174222 | 72 | 208 | 2.6 | 5.2 | 0.00 | 0.07 | 0.00 | 65 | 1010.6 |
| 20260505174022 | 72 | 212 | 2.6 | 5.2 | 0.00 | 0.07 | 0.00 | 64 | 1010.5 |
| 20260505173822 | 72 | 213 | 1.7 | 8.7 | 0.00 | 0.07 | 0.00 | 65 | 1010.5 |
| 20260505173644 | 72 | 213 | 1.7 | 8.7 | 0.00 | 0.07 | 0.00 | 65 | 1010.6 |
| 20260505173422 | 72 | 211 | 1.7 | 8.7 | 0.00 | 0.07 | 0.00 | 66 | 1010.7 |
| 20260505173223 | 72 | 208 | 0.9 | 8.7 | 0.00 | 0.07 | 0.00 | 65 | 1010.7 |
| 20260505173022 | 72 | 205 | 0.9 | 8.7 | 0.00 | 0.07 | 0.00 | 66 | 1010.7 |
| 20260505172822 | 72 | 205 | 0.9 | 4.3 | 0.00 | 0.07 | 0.00 | 66 | 1010.7 |
| 20260505172623 | 72 | 205 | 0.9 | 4.3 | 0.00 | 0.07 | 0.00 | 66 | 1010.7 |
| 20260505172443 | 72 | 204 | 1.7 | 4.3 | 0.00 | 0.07 | 0.00 | 66 | 1010.7 |
| 20260505172222 | 72 | 213 | 1.7 | 4.3 | 0.00 | 0.07 | 0.00 | 66 | 1010.6 |
| 20260505172022 | 72 | 208 | 1.7 | 3.5 | 0.00 | 0.07 | 0.00 | 68 | 1010.7 |
| 20260505171822 | 72 | 210 | 1.7 | 5.2 | 0.00 | 0.07 | 0.00 | 68 | 1010.7 |
| 20260505171622 | 72 | 209 | 2.6 | 5.2 | 0.00 | 0.07 | 0.00 | 67 | 1010.8 |
| 20260505171422 | 72 | 210 | 2.6 | 5.2 | 0.00 | 0.07 | 0.00 | 67 | 1010.8 |
| 20260505171222 | 72 | 211 | 2.6 | 5.2 | 0.00 | 0.07 | 0.00 | 66 | 1010.9 |
| 20260505171022 | 72 | 214 | 2.6 | 6.1 | 0.00 | 0.07 | 0.00 | 66 | 1010.9 |
| 20260505170822 | 72 | 211 | 2.6 | 6.1 | 0.00 | 0.07 | 0.00 | 66 | 1011.0 |
| 20260505170622 | 72 | 211 | 2.6 | 6.1 | 0.00 | 0.07 | 0.00 | 65 | 1011.1 |
| 20260505170422 | 73 | 210 | 2.6 | 6.1 | 0.00 | 0.07 | 0.00 | 65 | 1011.0 |
| 20260505170243 | 73 | 210 | 2.6 | 6.1 | 0.00 | 0.07 | 0.00 | 65 | 1011.0 |
| 20260505170022 | 73 | 211 | 2.6 | 6.1 | 0.00 | 0.07 | 0.00 | 65 | 1011.0 |
| 20260505165843 | 72 | 213 | 2.6 | 6.1 | 0.00 | 0.07 | 0.00 | 66 | 1010.9 |
| 20260505165643 | 72 | 212 | 2.6 | 6.1 | 0.00 | 0.07 | 0.00 | 67 | 1011.0 |
| 20260505165422 | 72 | 210 | 2.6 | 6.1 | 0.00 | 0.07 | 0.00 | 65 | 1010.9 |
| 20260505165222 | 72 | 210 | 2.6 | 6.1 | 0.00 | 0.07 | 0.00 | 66 | 1011.0 |
| 20260505165022 | 72 | 208 | 2.6 | 5.2 | 0.00 | 0.07 | 0.00 | 66 | 1011.0 |
| 20260505164843 | 72 | 207 | 2.6 | 5.2 | 0.00 | 0.07 | 0.00 | 66 | 1011.1 |
| 20260505164622 | 72 | 209 | 2.6 | 6.1 | 0.00 | 0.07 | 0.00 | 66 | 1011.2 |
| 20260505164422 | 72 | 211 | 2.6 | 6.1 | 0.00 | 0.07 | 0.00 | 67 | 1011.2 |
| 20260505164222 | 72 | 212 | 1.7 | 6.1 | 0.00 | 0.07 | 0.00 | 67 | 1011.2 |
| 20260505164022 | 72 | 209 | 2.6 | 6.1 | 0.00 | 0.07 | 0.00 | 66 | 1011.3 |
| 20260505163843 | 72 | 210 | 2.6 | 6.1 | 0.00 | 0.07 | 0.00 | 66 | 1011.4 |
| 20260505163623 | 72 | 210 | 2.6 | 5.2 | 0.00 | 0.07 | 0.00 | 68 | 1011.4 |
| 20260505163444 | 72 | 209 | 1.7 | 5.2 | 0.00 | 0.07 | 0.00 | 68 | 1011.4 |
| 20260505163223 | 71 | 210 | 1.7 | 5.2 | 0.00 | 0.07 | 0.00 | 67 | 1011.4 |
| 20260505163022 | 71 | 213 | 1.7 | 5.2 | 0.00 | 0.07 | 0.00 | 67 | 1011.4 |
| 20260505162822 | 71 | 211 | 1.7 | 4.3 | 0.00 | 0.07 | 0.00 | 67 | 1011.5 |
| 20260505162622 | 71 | 214 | 1.7 | 6.1 | 0.00 | 0.07 | 0.00 | 67 | 1011.5 |
| 20260505162422 | 71 | 221 | 1.7 | 6.1 | 0.00 | 0.07 | 0.00 | 68 | 1011.6 |
| 20260505162222 | 71 | 217 | 1.7 | 6.1 | 0.00 | 0.07 | 0.00 | 69 | 1011.7 |
| 20260505162022 | 71 | 218 | 1.7 | 6.1 | 0.00 | 0.07 | 0.00 | 68 | 1011.8 |
| 20260505161823 | 71 | 218 | 1.7 | 6.1 | 0.00 | 0.07 | 0.00 | 68 | 1011.9 |
| 20260505161622 | 71 | 216 | 1.7 | 4.3 | 0.00 | 0.07 | 0.00 | 67 | 1012.0 |
| 20260505161422 | 71 | 212 | 0.9 | 4.3 | 0.00 | 0.07 | 0.00 | 68 | 1012.1 |
| 20260505161222 | 71 | 211 | 0.9 | 4.3 | 0.00 | 0.07 | 0.00 | 68 | 1012.1 |
| 20260505161022 | 71 | 205 | 1.7 | 2.6 | 0.00 | 0.07 | 0.00 | 69 | 1012.0 |
| 20260505160822 | 71 | 207 | 1.7 | 2.6 | 0.00 | 0.07 | 0.00 | 68 | 1012.0 |
| 20260505160623 | 71 | 214 | 1.7 | 5.2 | 0.00 | 0.07 | 0.00 | 68 | 1012.1 |
| 20260505160443 | 71 | 217 | 1.7 | 5.2 | 0.00 | 0.07 | 0.00 | 69 | 1012.1 |
| 20260505160243 | 71 | 216 | 2.6 | 5.2 | 0.00 | 0.07 | 0.00 | 70 | 1012.1 |
| 20260505153222 | 70 | 214 | 1.7 | 6.1 | 0.00 | 0.07 | 0.00 | 68 | 1012.4 |
| 20260505153022 | 70 | 212 | 1.7 | 6.1 | 0.00 | 0.07 | 0.00 | 69 | 1012.4 |
| 20260505152843 | 70 | 212 | 1.7 | 4.3 | 0.00 | 0.07 | 0.00 | 70 | 1012.3 |
| 20260505152622 | 70 | 210 | 0.9 | 4.3 | 0.00 | 0.07 | 0.00 | 70 | 1012.2 |
| 20260505152422 | 69 | 213 | 0.9 | 4.3 | 0.00 | 0.07 | 0.00 | 71 | 1012.2 |
| 20260505152222 | 69 | 213 | 0.9 | 4.3 | 0.00 | 0.07 | 0.00 | 70 | 1012.2 |
| 20260505152022 | 69 | 212 | 0.9 | 3.5 | 0.00 | 0.07 | 0.00 | 71 | 1012.2 |
| 20260505151822 | 69 | 215 | 0.9 | 3.5 | 0.00 | 0.07 | 0.00 | 70 | 1012.2 |
| 20260505151625 | 69 | 219 | 1.7 | 3.5 | 0.00 | 0.07 | 0.00 | 71 | 1012.2 |
| 20260505151422 | 69 | 219 | 1.7 | 4.3 | 0.00 | 0.07 | 0.00 | 72 | 1012.2 |
| 20260505151243 | 69 | 220 | 1.7 | 4.3 | 0.00 | 0.07 | 0.00 | 72 | 1012.3 |
| 20260505151022 | 69 | 218 | 1.7 | 4.3 | 0.00 | 0.07 | 0.00 | 71 | 1012.3 |
| 20260505150822 | 68 | 214 | 1.7 | 4.3 | 0.00 | 0.07 | 0.00 | 71 | 1012.3 |
| 20260505150622 | 68 | 212 | 1.7 | 4.3 | 0.00 | 0.07 | 0.00 | 71 | 1012.3 |
| 20260505150422 | 68 | 210 | 1.7 | 4.3 | 0.00 | 0.07 | 0.00 | 71 | 1012.2 |
| 20260505150243 | 68 | 207 | 1.7 | 4.3 | 0.00 | 0.07 | 0.00 | 70 | 1012.2 |
| 20260505140622 | 66 | 0 | 0.0 | 0.0 | 0.00 | 0.07 | 0.00 | 74 | 1011.8 |
| 20260505140422 | 66 | 0 | 0.0 | 0.0 | 0.00 | 0.07 | 0.00 | 74 | 1011.8 |
| 20260505140222 | 66 | 0 | 0.0 | 0.0 | 0.00 | 0.07 | 0.00 | 74 | 1011.7 |
| 20260505130243 | 63 | 0 | 0.0 | 0.0 | 0.00 | 0.07 | 0.00 | 77 | 1011.4 |
| 20260505124822 | 63 | 0 | 0.0 | 0.0 | 0.00 | 0.07 | 0.00 | 78 | 1011.5 |
| 20260505124622 | 62 | 0 | 0.0 | 0.0 | 0.00 | 0.07 | 0.00 | 78 | 1011.5 |
| 20260505124422 | 62 | 0 | 0.0 | 0.0 | 0.00 | 0.07 | 0.00 | 78 | 1011.5 |
| 20260505124243 | 62 | 0 | 0.0 | 0.0 | 0.00 | 0.07 | 0.00 | 78 | 1011.4 |
| 20260505124022 | 62 | 0 | 0.0 | 0.0 | 0.00 | 0.07 | 0.00 | 79 | 1011.4 |
| 20260505123822 | 62 | 0 | 0.0 | 0.0 | 0.00 | 0.07 | 0.00 | 79 | 1011.4 |
| 20260505123643 | 62 | 0 | 0.0 | 0.0 | 0.00 | 0.07 | 0.00 | 79 | 1011.5 |
| 20260505123422 | 62 | 0 | 0.0 | 0.0 | 0.00 | 0.07 | 0.00 | 79 | 1011.4 |
| 20260505123222 | 62 | 0 | 0.0 | 0.0 | 0.00 | 0.07 | 0.00 | 79 | 1011.5 |
| 20260505123023 | 61 | 0 | 0.0 | 0.0 | 0.00 | 0.07 | 0.00 | 79 | 1011.5 |
| 20260505122823 | 61 | 0 | 0.0 | 0.0 | 0.00 | 0.07 | 0.00 | 80 | 1011.5 |
| 20260505122622 | 61 | 0 | 0.0 | 0.0 | 0.00 | 0.07 | 0.00 | 80 | 1011.4 |
| 20260505122422 | 61 | 0 | 0.0 | 0.0 | 0.00 | 0.07 | 0.00 | 80 | 1011.4 |
| 20260505122222 | 61 | 0 | 0.0 | 0.0 | 0.00 | 0.07 | 0.00 | 80 | 1011.5 |
| 20260505122043 | 61 | 0 | 0.0 | 0.0 | 0.00 | 0.07 | 0.00 | 80 | 1011.5 |
| 20260505121822 | 61 | 0 | 0.0 | 0.0 | 0.00 | 0.07 | 0.00 | 80 | 1011.6 |
| 20260505121622 | 61 | 0 | 0.0 | 0.0 | 0.00 | 0.07 | 0.00 | 80 | 1011.7 |
| 20260505121422 | 60 | 0 | 0.0 | 0.0 | 0.00 | 0.07 | 0.00 | 80 | 1011.6 |
| 20260505121223 | 60 | 0 | 0.0 | 0.0 | 0.00 | 0.07 | 0.00 | 80 | 1011.6 |
| 20260505121022 | 60 | 0 | 0.0 | 0.0 | 0.00 | 0.07 | 0.00 | 80 | 1011.6 |
| 20260505120822 | 60 | 0 | 0.0 | 0.0 | 0.00 | 0.07 | 0.00 | 80 | 1011.6 |
| 20260505120643 | 60 | 0 | 0.0 | 0.0 | 0.00 | 0.07 | 0.00 | 81 | 1011.5 |
| 20260505120422 | 60 | 0 | 0.0 | 0.0 | 0.00 | 0.07 | 0.00 | 81 | 1011.5 |
| 20260505120244 | 60 | 0 | 0.0 | 0.0 | 0.00 | 0.07 | 0.00 | 81 | 1011.4 |
| 20260505120022 | 60 | 0 | 0.0 | 0.0 | 0.00 | 0.07 | 0.00 | 81 | 1011.4 |
| 20260505115822 | 59 | 0 | 0.0 | 0.0 | 0.00 | 0.07 | 0.00 | 81 | 1011.3 |
| 20260505115643 | 59 | 0 | 0.0 | 0.0 | 0.00 | 0.07 | 0.00 | 81 | 1011.3 |
| 20260505115422 | 59 | 0 | 0.0 | 0.0 | 0.00 | 0.07 | 0.00 | 81 | 1011.3 |
| 20260505115222 | 59 | 0 | 0.0 | 0.0 | 0.00 | 0.07 | 0.00 | 81 | 1011.3 |
| 20260505115022 | 59 | 0 | 0.0 | 0.0 | 0.00 | 0.07 | 0.00 | 82 | 1011.2 |
| 20260505114822 | 59 | 0 | 0.0 | 0.0 | 0.00 | 0.07 | 0.00 | 82 | 1011.3 |
| 20260505114622 | 59 | 0 | 0.0 | 0.0 | 0.00 | 0.07 | 0.00 | 82 | 1011.2 |
| 20260505114422 | 58 | 0 | 0.0 | 0.0 | 0.00 | 0.07 | 0.00 | 82 | 1011.2 |
| 20260505114223 | 58 | 0 | 0.0 | 0.0 | 0.00 | 0.07 | 0.00 | 82 | 1011.2 |
| 20260505114022 | 58 | 0 | 0.0 | 0.0 | 0.00 | 0.07 | 0.00 | 82 | 1011.2 |
| 20260505113843 | 58 | 0 | 0.0 | 0.0 | 0.00 | 0.07 | 0.00 | 82 | 1011.1 |
| 20260505113622 | 58 | 0 | 0.0 | 0.0 | 0.00 | 0.07 | 0.00 | 83 | 1011.1 |
| 20260505113422 | 58 | 0 | 0.0 | 0.0 | 0.00 | 0.07 | 0.00 | 83 | 1011.1 |
| 20260505113223 | 57 | 0 | 0.0 | 0.0 | 0.00 | 0.07 | 0.00 | 84 | 1011.0 |
| 20260505113023 | 57 | 0 | 0.0 | 0.0 | 0.00 | 0.07 | 0.00 | 84 | 1011.0 |
| 20260505112822 | 57 | 0 | 0.0 | 0.0 | 0.00 | 0.07 | 0.00 | 84 | 1011.1 |
| 20260505112624 | 57 | 0 | 0.0 | 0.0 | 0.00 | 0.07 | 0.00 | 84 | 1011.1 |
| 20260505112422 | 57 | 0 | 0.0 | 0.0 | 0.00 | 0.07 | 0.00 | 84 | 1011.0 |
| 20260505112223 | 57 | 0 | 0.0 | 0.0 | 0.00 | 0.07 | 0.00 | 84 | 1011.1 |
| 20260505112022 | 57 | 0 | 0.0 | 0.0 | 0.00 | 0.07 | 0.00 | 84 | 1011.2 |
| 20260505111822 | 57 | 0 | 0.0 | 0.0 | 0.00 | 0.07 | 0.00 | 84 | 1011.1 |
| 20260505111624 | 57 | 0 | 0.0 | 0.0 | 0.00 | 0.07 | 0.00 | 84 | 1011.1 |
| 20260505111422 | 57 | 0 | 0.0 | 0.0 | 0.00 | 0.07 | 0.00 | 84 | 1011.1 |
| 20260505111222 | 57 | 0 | 0.0 | 0.0 | 0.00 | 0.07 | 0.00 | 83 | 1011.1 |
| 20260505111023 | 57 | 0 | 0.0 | 0.0 | 0.00 | 0.07 | 0.00 | 83 | 1011.1 |
| 20260505110822 | 57 | 0 | 0.0 | 0.0 | 0.00 | 0.07 | 0.00 | 83 | 1011.1 |
| 20260505110622 | 57 | 0 | 0.0 | 0.0 | 0.00 | 0.07 | 0.00 | 83 | 1011.0 |
| 20260505110422 | 57 | 0 | 0.0 | 0.0 | 0.00 | 0.07 | 0.00 | 83 | 1011.1 |
| 20260505110222 | 57 | 0 | 0.0 | 0.0 | 0.00 | 0.07 | 0.00 | 83 | 1011.0 |
| 20260505102222 | 56 | 0 | 0.0 | 0.0 | 0.00 | 0.07 | 0.00 | 83 | 1010.9 |
| 20260505102022 | 56 | 0 | 0.0 | 0.0 | 0.00 | 0.07 | 0.00 | 83 | 1010.8 |
| 20260505101844 | 56 | 0 | 0.0 | 0.0 | 0.00 | 0.07 | 0.00 | 83 | 1010.8 |
| 20260505101622 | 56 | 0 | 0.0 | 0.0 | 0.00 | 0.07 | 0.00 | 83 | 1010.7 |
| 20260505101422 | 56 | 0 | 0.0 | 0.0 | 0.00 | 0.07 | 0.00 | 83 | 1010.7 |
| 20260505101222 | 56 | 0 | 0.0 | 0.0 | 0.00 | 0.07 | 0.00 | 83 | 1010.7 |
| 20260505101023 | 56 | 0 | 0.0 | 0.0 | 0.00 | 0.07 | 0.00 | 83 | 1010.6 |
| 20260505100843 | 56 | 0 | 0.0 | 0.0 | 0.00 | 0.07 | 0.00 | 83 | 1010.7 |
| 20260505100622 | 56 | 0 | 0.0 | 0.0 | 0.00 | 0.07 | 0.00 | 83 | 1010.7 |
| 20260505100422 | 56 | 0 | 0.0 | 0.0 | 0.00 | 0.07 | 0.00 | 83 | 1010.7 |
| 20260505100222 | 56 | 0 | 0.0 | 0.0 | 0.00 | 0.07 | 0.00 | 83 | 1010.7 |
| 20260505100022 | 56 | 0 | 0.0 | 0.0 | 0.00 | 0.07 | 0.00 | 83 | 1010.7 |
| 20260505095822 | 56 | 0 | 0.0 | 0.0 | 0.00 | 0.07 | 0.00 | 83 | 1010.8 |
| 20260505095643 | 56 | 0 | 0.0 | 0.0 | 0.00 | 0.07 | 0.00 | 83 | 1010.7 |
| 20260505095443 | 56 | 0 | 0.0 | 0.0 | 0.00 | 0.07 | 0.00 | 83 | 1010.7 |
| 20260505095243 | 56 | 0 | 0.0 | 0.0 | 0.00 | 0.07 | 0.00 | 83 | 1010.7 |
| 20260505095022 | 56 | 0 | 0.0 | 0.0 | 0.00 | 0.07 | 0.00 | 83 | 1010.7 |
| 20260505094822 | 56 | 0 | 0.0 | 0.0 | 0.00 | 0.07 | 0.00 | 83 | 1010.7 |
| 20260505094622 | 57 | 0 | 0.0 | 0.0 | 0.00 | 0.07 | 0.00 | 82 | 1010.7 |
| 20260505094422 | 57 | 0 | 0.0 | 0.0 | 0.00 | 0.07 | 0.00 | 82 | 1010.7 |
| 20260505094222 | 57 | 0 | 0.0 | 0.0 | 0.00 | 0.07 | 0.00 | 82 | 1010.6 |
| 20260505094022 | 57 | 0 | 0.0 | 0.0 | 0.00 | 0.07 | 0.00 | 82 | 1010.6 |
| 20260505093822 | 57 | 0 | 0.0 | 0.0 | 0.00 | 0.07 | 0.00 | 82 | 1010.6 |
| 20260505093622 | 57 | 0 | 0.0 | 0.0 | 0.00 | 0.07 | 0.00 | 82 | 1010.6 |
| 20260505093422 | 57 | 0 | 0.0 | 0.0 | 0.00 | 0.07 | 0.00 | 82 | 1010.7 |
| 20260505093222 | 57 | 0 | 0.0 | 0.0 | 0.00 | 0.07 | 0.00 | 82 | 1010.7 |
| 20260505093022 | 57 | 0 | 0.0 | 0.0 | 0.00 | 0.07 | 0.00 | 81 | 1010.7 |
| 20260505092822 | 57 | 0 | 0.0 | 0.0 | 0.00 | 0.07 | 0.00 | 81 | 1010.7 |
| 20260505092644 | 57 | 0 | 0.0 | 0.0 | 0.00 | 0.07 | 0.00 | 81 | 1010.6 |
| 20260505092422 | 57 | 0 | 0.0 | 0.0 | 0.00 | 0.07 | 0.00 | 81 | 1010.7 |
| 20260505092222 | 58 | 0 | 0.0 | 0.0 | 0.00 | 0.07 | 0.00 | 81 | 1010.6 |